createdAt,value
2022-10-26T00:00:27.381Z,88.26
2022-10-26T00:03:29.415Z,87.39
2022-10-26T00:06:36.474Z,86.90
2022-10-26T00:09:38.519Z,87.45
2022-10-26T00:12:40.667Z,88.12
2022-10-26T00:15:42.906Z,87.18
2022-10-26T00:18:45.087Z,87.99
2022-10-26T00:21:47.179Z,88.18
2022-10-26T00:24:49.340Z,87.79
2022-10-26T00:27:51.612Z,88.10
2022-10-26T00:30:54.027Z,87.67
2022-10-26T00:33:56.423Z,87.80
2022-10-26T00:36:58.579Z,88.30
2022-10-26T00:40:00.679Z,88.26
2022-10-26T00:43:02.799Z,88.42
2022-10-26T00:46:07.606Z,88.42
2022-10-26T00:49:14.181Z,87.81
2022-10-26T00:52:16.318Z,88.84
2022-10-26T00:55:21.471Z,88.97
2022-10-26T00:58:23.617Z,88.23
2022-10-26T01:01:25.813Z,89.28
2022-10-26T01:04:27.874Z,89.49
2022-10-26T01:07:29.962Z,89.81
2022-10-26T01:10:32.063Z,89.71
2022-10-26T01:13:35.906Z,89.85
2022-10-26T01:16:57.500Z,90.68
2022-10-26T01:20:21.069Z,90.19
2022-10-26T01:23:28.700Z,90.86
2022-10-26T01:27:01.710Z,90.22
2022-10-26T01:30:31.450Z,90.63
2022-10-26T01:33:47.002Z,90.81
2022-10-26T01:36:56.328Z,90.75
2022-10-26T01:40:06.417Z,90.52
2022-10-26T01:43:09.629Z,90.97
2022-10-26T01:46:12.038Z,91.42
2022-10-26T01:49:15.498Z,91.20
2022-10-26T01:52:19.553Z,91.35
2022-10-26T01:55:52.394Z,90.96
2022-10-26T01:59:16.222Z,91.02
2022-10-26T02:02:52.827Z,90.95
2022-10-26T02:06:17.292Z,90.80
2022-10-26T02:09:45.258Z,91.32
2022-10-26T02:13:32.671Z,91.78
2022-10-26T02:16:58.152Z,92.25
2022-10-26T02:20:05.840Z,92.08
2022-10-26T02:23:07.890Z,90.17
2022-10-26T02:26:10.694Z,91.29
2022-10-26T02:29:18.011Z,92.32
2022-10-26T02:32:20.346Z,91.48
2022-10-26T02:35:31.001Z,91.85
2022-10-26T02:38:33.036Z,91.85
2022-10-26T02:41:35.085Z,92.29
2022-10-26T02:44:50.338Z,90.46
2022-10-26T02:47:52.652Z,91.94
2022-10-26T02:51:10.345Z,91.58
2022-10-26T02:54:56.942Z,91.93
2022-10-26T02:58:01.909Z,92.15
2022-10-26T03:01:04.087Z,91.79
2022-10-26T03:04:06.219Z,92.80
2022-10-26T03:07:09.484Z,93.04
2022-10-26T03:10:11.761Z,92.84
2022-10-26T03:13:13.934Z,92.55
2022-10-26T03:16:15.964Z,92.61
2022-10-26T03:19:18.017Z,92.12
2022-10-26T03:22:20.062Z,92.31
2022-10-26T03:25:22.087Z,90.73
2022-10-26T03:28:24.155Z,90.92
2022-10-26T03:31:26.209Z,91.93
2022-10-26T03:34:28.256Z,91.83
2022-10-26T03:37:30.283Z,92.83
2022-10-26T03:40:32.362Z,92.23
2022-10-26T03:43:34.471Z,92.36
2022-10-26T03:46:36.507Z,92.25
2022-10-26T03:49:38.531Z,93.01
2022-10-26T03:52:40.869Z,92.96
2022-10-26T03:55:45.823Z,92.40
2022-10-26T03:58:47.847Z,92.44
2022-10-26T04:01:52.745Z,93.26
2022-10-26T04:04:57.414Z,93.52
2022-10-26T04:08:00.691Z,93.41
2022-10-26T04:11:04.609Z,94.11
2022-10-26T04:14:06.953Z,94.05
2022-10-26T04:17:08.992Z,93.15
2022-10-26T04:20:11.287Z,93.57
2022-10-26T04:23:15.243Z,93.76
2022-10-26T04:26:17.349Z,93.41
2022-10-26T04:29:19.375Z,93.76
2022-10-26T04:32:21.518Z,94.16
2022-10-26T04:35:23.558Z,93.74
2022-10-26T04:38:25.622Z,94.63
2022-10-26T04:41:27.669Z,95.16
2022-10-26T04:44:29.705Z,93.95
2022-10-26T04:47:32.271Z,92.89
2022-10-26T04:50:34.723Z,94.26
2022-10-26T04:53:38.366Z,95.65
2022-10-26T04:56:40.574Z,94.56
2022-10-26T04:59:42.680Z,94.95
2022-10-26T05:02:44.729Z,95.74
2022-10-26T05:05:47.867Z,94.73
2022-10-26T05:08:49.973Z,95.50
2022-10-26T05:11:51.997Z,95.93
2022-10-26T05:14:59.001Z,95.85
2022-10-26T05:18:03.529Z,96.01
2022-10-26T05:21:05.758Z,95.94
2022-10-26T05:24:10.184Z,96.29
2022-10-26T05:27:14.479Z,95.05
2022-10-26T05:30:16.704Z,95.78
2022-10-26T05:33:18.805Z,96.66
2022-10-26T05:36:20.999Z,97.32
2022-10-26T05:39:23.070Z,96.92
2022-10-26T05:42:25.536Z,96.20
2022-10-26T05:45:27.955Z,95.62
2022-10-26T05:48:30.030Z,95.11
2022-10-26T05:51:34.559Z,95.94
2022-10-26T05:54:36.727Z,96.19
2022-10-26T05:57:39.348Z,96.16
2022-10-26T06:01:08.001Z,95.89
2022-10-26T06:04:22.642Z,95.97
2022-10-26T06:07:25.178Z,95.84
2022-10-26T06:10:28.114Z,97.31
2022-10-26T06:13:30.895Z,96.97
2022-10-26T06:16:42.860Z,96.81
2022-10-26T06:19:57.357Z,96.80
2022-10-26T06:23:19.241Z,96.46
2022-10-26T06:26:52.551Z,96.59
2022-10-26T06:30:14.833Z,97.08
2022-10-26T06:33:28.520Z,96.53
2022-10-26T06:36:31.820Z,96.01
2022-10-26T06:39:37.497Z,96.56
2022-10-26T06:42:39.853Z,95.96
2022-10-26T06:45:41.928Z,96.73
2022-10-26T06:49:22.254Z,95.90
2022-10-26T06:52:38.776Z,96.80
2022-10-26T06:55:45.210Z,95.60
2022-10-26T06:58:47.353Z,95.50
2022-10-26T07:01:49.458Z,94.45
2022-10-26T07:04:51.597Z,95.37
2022-10-26T07:07:53.779Z,94.81
2022-10-26T07:10:55.928Z,94.76
2022-10-26T07:13:57.956Z,95.67
2022-10-26T07:17:00.100Z,96.41
2022-10-26T07:20:02.118Z,95.38
2022-10-26T07:23:06.904Z,97.24
2022-10-26T07:26:08.940Z,96.60
2022-10-26T07:29:11.002Z,96.95
2022-10-26T07:32:13.029Z,95.86
2022-10-26T07:35:15.171Z,96.50
2022-10-26T07:38:17.222Z,96.39
2022-10-26T07:41:19.439Z,96.13
2022-10-26T07:44:21.519Z,96.49
2022-10-26T07:47:23.583Z,96.19
2022-10-26T07:50:25.794Z,96.02
2022-10-26T07:53:28.139Z,94.98
2022-10-26T07:56:30.343Z,94.85
2022-10-26T07:59:32.503Z,93.51
2022-10-26T08:02:34.706Z,93.33
2022-10-26T08:05:36.746Z,93.81
2022-10-26T08:08:40.651Z,93.48
2022-10-26T08:11:45.448Z,92.34
2022-10-26T08:14:48.579Z,92.13
2022-10-26T08:17:50.846Z,90.75
2022-10-26T08:20:53.312Z,90.45
2022-10-26T08:23:55.478Z,89.31
2022-10-26T08:26:57.545Z,88.62
2022-10-26T08:29:59.591Z,88.73
2022-10-26T08:33:06.657Z,88.86
2022-10-26T08:36:08.874Z,87.81
2022-10-26T08:39:10.920Z,87.15
2022-10-26T08:42:37.600Z,87.14
2022-10-26T08:45:41.440Z,85.91
2022-10-26T08:48:52.895Z,85.88
2022-10-26T08:51:58.123Z,85.27
2022-10-26T08:55:00.183Z,84.77
2022-10-26T08:58:02.265Z,83.56
2022-10-26T09:01:05.474Z,79.52
2022-10-26T09:04:13.371Z,78.84
2022-10-26T09:07:36.651Z,79.06
2022-10-26T09:10:57.618Z,80.30
2022-10-26T09:14:40.674Z,80.70
2022-10-26T09:18:19.606Z,80.88
2022-10-26T09:21:43.638Z,80.89
2022-10-26T09:24:53.363Z,80.60
2022-10-26T09:28:01.453Z,81.35
2022-10-26T09:31:04.207Z,80.14
2022-10-26T09:34:06.635Z,82.26
2022-10-26T09:37:38.423Z,79.94
2022-10-26T09:41:08.759Z,77.34
2022-10-26T09:44:55.085Z,75.69
2022-10-26T09:48:03.970Z,74.67
2022-10-26T09:51:08.665Z,74.33
2022-10-26T09:54:18.925Z,75.60
2022-10-26T09:57:21.017Z,75.04
2022-10-26T10:00:25.189Z,73.95
2022-10-26T10:03:29.607Z,75.09
2022-10-26T10:06:31.671Z,73.79
2022-10-26T10:09:33.701Z,74.70
2022-10-26T10:12:35.771Z,73.15
2022-10-26T10:15:37.823Z,74.10
2022-10-26T10:18:41.425Z,75.58
2022-10-26T10:21:49.219Z,75.88
2022-10-26T10:24:55.837Z,75.38
2022-10-26T10:27:57.869Z,74.74
2022-10-26T10:31:03.355Z,74.67
2022-10-26T10:34:16.850Z,73.10
2022-10-26T10:37:44.326Z,73.88
2022-10-26T10:40:59.708Z,71.49
2022-10-26T10:44:23.850Z,69.81
2022-10-26T10:47:34.092Z,69.71
2022-10-26T10:50:36.539Z,70.43
2022-10-26T10:53:44.877Z,67.58
2022-10-26T10:57:07.794Z,64.41
2022-10-26T11:00:10.571Z,64.10
2022-10-26T11:03:38.266Z,65.17
2022-10-26T11:06:40.291Z,66.64
2022-10-26T11:09:43.626Z,67.11
2022-10-26T11:12:59.937Z,67.33
2022-10-26T11:16:11.945Z,66.86
2022-10-26T11:19:24.452Z,67.22
2022-10-26T11:22:37.339Z,66.89
2022-10-26T11:25:50.226Z,68.80
2022-10-26T11:29:04.924Z,67.94
2022-10-26T11:32:40.249Z,67.51
2022-10-26T11:35:55.157Z,66.56
2022-10-26T11:39:44.294Z,63.24
2022-10-26T11:43:18.085Z,62.53
2022-10-26T11:46:50.447Z,62.57
2022-10-26T11:50:12.191Z,63.27
2022-10-26T11:53:31.989Z,58.96
2022-10-26T11:56:44.308Z,57.43
2022-10-26T11:59:50.990Z,56.39
2022-10-26T12:03:08.644Z,56.66
2022-10-26T12:06:10.678Z,57.58
2022-10-26T12:09:26.552Z,56.69
2022-10-26T12:13:08.454Z,54.48
2022-10-26T12:17:06.578Z,54.45
2022-10-26T12:20:32.650Z,56.40
2022-10-26T12:24:02.418Z,54.42
2022-10-26T12:27:05.847Z,53.92
2022-10-26T12:30:17.604Z,52.81
2022-10-26T12:33:29.895Z,55.08
2022-10-26T12:36:56.616Z,51.52
2022-10-26T12:40:32.722Z,50.86
2022-10-26T12:43:39.465Z,50.78
2022-10-26T12:46:42.123Z,55.03
2022-10-26T12:50:07.232Z,55.49
2022-10-26T12:53:14.049Z,51.10
2022-10-26T12:56:16.794Z,54.11
2022-10-26T12:59:33.726Z,57.03
2022-10-26T13:03:28.941Z,57.25
2022-10-26T13:06:48.318Z,58.36
2022-10-26T13:10:12.602Z,59.13
2022-10-26T13:13:22.827Z,58.72
2022-10-26T13:16:26.295Z,60.53
2022-10-26T13:19:45.015Z,61.35
2022-10-26T13:22:47.701Z,61.13
2022-10-26T13:26:07.909Z,62.46
2022-10-26T13:29:09.952Z,64.18
2022-10-26T13:32:12.191Z,64.54
2022-10-26T13:35:14.578Z,63.51
2022-10-26T13:38:19.163Z,60.48
2022-10-26T13:41:34.190Z,63.61
2022-10-26T13:44:36.113Z,64.47
2022-10-26T13:48:06.305Z,63.82
2022-10-26T13:51:21.165Z,60.96
2022-10-26T13:54:40.057Z,61.26
2022-10-26T13:58:09.638Z,62.04
2022-10-26T14:01:16.698Z,62.98
2022-10-26T14:04:29.073Z,61.67
2022-10-26T14:08:03.635Z,61.17
2022-10-26T14:11:05.873Z,57.86
2022-10-26T14:14:13.631Z,62.10
2022-10-26T14:17:22.964Z,52.75
2022-10-26T14:20:25.597Z,63.52
2022-10-26T14:23:38.167Z,65.45
2022-10-26T14:26:41.042Z,65.79
2022-10-26T14:29:46.902Z,66.19
2022-10-26T14:32:53.031Z,65.78
2022-10-26T14:35:55.330Z,64.05
2022-10-26T14:39:05.565Z,65.21
2022-10-26T14:42:40.631Z,56.60
2022-10-26T14:45:49.536Z,50.92
2022-10-26T14:48:59.445Z,49.88
2022-10-26T14:52:06.256Z,49.44
2022-10-26T14:55:14.598Z,43.91
2022-10-26T14:58:30.551Z,41.96
2022-10-26T15:01:35.674Z,44.59
2022-10-26T15:04:40.614Z,43.88
2022-10-26T15:07:44.619Z,43.22
2022-10-26T15:10:47.528Z,45.57
2022-10-26T15:13:49.609Z,55.36
2022-10-26T15:16:56.926Z,54.06
2022-10-26T15:20:03.749Z,56.98
2022-10-26T15:23:06.156Z,57.55
2022-10-26T15:26:10.684Z,58.84
2022-10-26T15:29:45.461Z,59.43
2022-10-26T15:32:47.690Z,60.70
2022-10-26T15:35:49.814Z,59.58
2022-10-26T15:38:52.100Z,60.83
2022-10-26T15:41:54.417Z,61.65
2022-10-26T15:44:56.499Z,61.65
2022-10-26T15:47:59.634Z,62.84
2022-10-26T15:51:01.670Z,62.83
2022-10-26T15:54:04.681Z,63.71
2022-10-26T15:57:09.081Z,64.16
2022-10-26T16:00:16.089Z,64.24
2022-10-26T16:03:23.160Z,64.27
2022-10-26T16:06:34.984Z,64.57
2022-10-26T16:09:37.077Z,65.43
2022-10-26T16:12:39.369Z,65.41
2022-10-26T16:15:41.720Z,65.61
2022-10-26T16:18:44.057Z,66.83
2022-10-26T16:21:46.163Z,66.61
2022-10-26T16:24:48.255Z,66.76
2022-10-26T16:27:50.817Z,66.75
2022-10-26T16:30:59.270Z,67.99
2022-10-26T16:34:04.102Z,69.55
2022-10-26T16:37:06.582Z,69.02
2022-10-26T16:40:09.315Z,69.84
2022-10-26T16:43:11.556Z,70.53
2022-10-26T16:46:18.913Z,70.84
2022-10-26T16:49:20.974Z,70.77
2022-10-26T16:52:23.013Z,70.64
2022-10-26T16:55:25.112Z,70.55
2022-10-26T16:58:27.158Z,70.54
2022-10-26T17:01:29.452Z,70.97
2022-10-26T17:04:31.594Z,71.17
2022-10-26T17:07:33.694Z,71.20
2022-10-26T17:10:35.778Z,70.47
2022-10-26T17:13:38.523Z,70.86
2022-10-26T17:16:40.578Z,70.76
2022-10-26T17:19:42.708Z,69.97
2022-10-26T17:22:44.833Z,70.16
2022-10-26T17:25:47.025Z,69.98
2022-10-26T17:28:53.495Z,70.40
2022-10-26T17:31:55.595Z,70.50
2022-10-26T17:34:57.687Z,70.02
2022-10-26T17:37:59.939Z,70.95
2022-10-26T17:41:08.015Z,70.54
2022-10-26T17:44:10.083Z,70.27
2022-10-26T17:47:12.196Z,70.66
2022-10-26T17:50:14.273Z,70.25
2022-10-26T17:53:16.303Z,71.24
2022-10-26T17:56:26.772Z,71.04
2022-10-26T17:59:29.024Z,71.26
2022-10-26T18:02:31.419Z,71.63
2022-10-26T18:05:33.638Z,71.44
2022-10-26T18:08:39.390Z,72.29
2022-10-26T18:11:41.416Z,72.63
2022-10-26T18:14:43.571Z,72.25
2022-10-26T18:17:49.843Z,72.15
2022-10-26T18:20:51.901Z,72.10
2022-10-26T18:23:54.268Z,71.69
2022-10-26T18:26:56.398Z,73.08
2022-10-26T18:29:58.443Z,72.76
2022-10-26T18:33:00.631Z,71.90
2022-10-26T18:36:10.082Z,71.41
2022-10-26T18:39:12.235Z,70.93
2022-10-26T18:42:14.544Z,70.80
2022-10-26T18:45:16.808Z,71.06
2022-10-26T18:48:19.170Z,71.29
2022-10-26T18:51:28.734Z,71.03
2022-10-26T18:54:31.774Z,71.54
2022-10-26T18:57:34.292Z,70.71
2022-10-26T19:00:40.044Z,70.39
2022-10-26T19:03:42.342Z,70.17
2022-10-26T19:06:47.401Z,69.94
2022-10-26T19:09:49.532Z,69.27
2022-10-26T19:12:51.922Z,69.90
2022-10-26T19:16:21.702Z,69.72
2022-10-26T19:19:29.022Z,69.16
2022-10-26T19:22:31.171Z,69.52
2022-10-26T19:25:33.269Z,69.28
2022-10-26T19:28:36.349Z,68.20
2022-10-26T19:31:38.471Z,69.31
2022-10-26T19:34:41.112Z,68.04
2022-10-26T19:37:43.322Z,70.03
2022-10-26T19:40:45.483Z,69.89
2022-10-26T19:43:47.624Z,69.01
2022-10-26T19:46:49.770Z,69.36
2022-10-26T19:49:51.806Z,69.05
2022-10-26T19:52:53.858Z,68.93
2022-10-26T19:55:58.027Z,68.10
2022-10-26T19:59:00.997Z,68.01
2022-10-26T20:02:03.056Z,68.10
2022-10-26T20:05:05.559Z,67.87
2022-10-26T20:08:08.445Z,67.60
2022-10-26T20:11:14.634Z,67.20
2022-10-26T20:14:17.913Z,67.98
2022-10-26T20:17:19.952Z,68.02
2022-10-26T20:20:21.984Z,67.00
2022-10-26T20:23:24.119Z,66.78
2022-10-26T20:26:28.233Z,67.51
2022-10-26T20:29:30.744Z,67.37
2022-10-26T20:32:32.782Z,68.44
2022-10-26T20:35:34.802Z,68.80
2022-10-26T20:38:37.172Z,68.33
2022-10-26T20:41:43.386Z,68.02
2022-10-26T20:44:45.430Z,69.12
2022-10-26T20:47:48.055Z,68.85
2022-10-26T20:50:55.336Z,68.77
2022-10-26T20:54:37.956Z,68.88
2022-10-26T20:57:39.999Z,68.59
2022-10-26T21:00:46.615Z,68.29
2022-10-26T21:03:48.707Z,68.30
2022-10-26T21:06:50.797Z,68.51
2022-10-26T21:09:52.972Z,69.07
2022-10-26T21:12:55.021Z,68.81
2022-10-26T21:15:57.082Z,69.05
2022-10-26T21:19:00.303Z,68.51
2022-10-26T21:22:02.671Z,67.66
2022-10-26T21:25:05.052Z,67.06
2022-10-26T21:28:07.096Z,66.08
2022-10-26T21:31:12.209Z,65.64
2022-10-26T21:34:14.306Z,64.90
2022-10-26T21:37:16.370Z,65.64
2022-10-26T21:40:18.399Z,65.48
2022-10-26T21:43:20.449Z,64.49
2022-10-26T21:46:22.505Z,65.88
2022-10-26T21:49:24.541Z,66.26
2022-10-26T21:52:26.690Z,66.01
2022-10-26T21:55:28.734Z,67.06
2022-10-26T21:58:30.987Z,67.16
2022-10-26T22:01:33.178Z,66.70
2022-10-26T22:04:35.301Z,67.03
2022-10-26T22:07:37.374Z,68.18
2022-10-26T22:10:39.407Z,66.87
2022-10-26T22:13:41.563Z,67.69
2022-10-26T22:16:43.722Z,67.17
2022-10-26T22:19:45.762Z,67.01
2022-10-26T22:22:47.804Z,66.74
2022-10-26T22:25:49.881Z,68.13
2022-10-26T22:28:54.715Z,67.54
2022-10-26T22:31:56.771Z,68.10
2022-10-26T22:35:10.871Z,68.39
2022-10-26T22:38:20.859Z,68.27
2022-10-26T22:41:23.396Z,68.73
2022-10-26T22:44:25.577Z,69.79
2022-10-26T22:47:28.305Z,69.89
2022-10-26T22:50:30.372Z,71.25
2022-10-26T22:53:32.522Z,71.75
2022-10-26T22:56:36.158Z,71.68
2022-10-26T22:59:38.163Z,72.22
2022-10-26T23:02:40.190Z,71.34
2022-10-26T23:05:48.366Z,71.76
2022-10-26T23:08:50.458Z,70.99
2022-10-26T23:11:52.511Z,71.42
2022-10-26T23:14:54.574Z,71.66
2022-10-26T23:17:56.654Z,71.63
2022-10-26T23:20:58.932Z,72.27
2022-10-26T23:24:01.018Z,71.13
2022-10-26T23:27:03.188Z,72.49
2022-10-26T23:30:05.950Z,71.65
2022-10-26T23:33:07.998Z,71.08
2022-10-26T23:36:10.252Z,70.79
2022-10-26T23:39:12.304Z,72.13
2022-10-26T23:42:14.364Z,72.01
2022-10-26T23:45:16.482Z,73.32
2022-10-26T23:48:19.414Z,74.15
2022-10-26T23:51:21.486Z,73.73
2022-10-26T23:54:23.567Z,74.37
2022-10-26T23:57:25.769Z,74.45
